FIN46J EVRA-EFHK
Flight info
| Callsign | FIN46J |
|---|---|
| Flight time | N/A |
| Altitude | 32000 |
| Route | SOKV2F SOKVA DCT ANAMA DCT KEMET DCT KEXLE DCT BEKNA DCT INTOR INTO9M |
| Aircraft | A321/M-SDE3FGHIRWY/LB1 |
Departure
| Time | 2026-05-05 04:54 |
|---|---|
| Airport | Riga International Airport (EVRA) |
Arrival
| Time | N/A |
|---|---|
| Airport | Helsinki Vantaa Airport (EFHK) |
| Time | Latitude | Longitude | Altitude | Speed | Heading |
|---|---|---|---|---|---|
| 2026-05-05 04:54 | 56.89899 | 23.96759 | 1187 ft | 160 kts | 187° |
| 2026-05-05 04:54 | 56.88716 | 23.96632 | 1722 ft | 176 kts | 187° |
| 2026-05-05 04:55 | 56.87435 | 23.96577 | 2108 ft | 192 kts | 185° |
| 2026-05-05 04:55 | 56.86058 | 23.96991 | 2453 ft | 212 kts | 164° |
| 2026-05-05 04:55 | 56.84663 | 23.98202 | 2754 ft | 234 kts | 156° |
| 2026-05-05 04:55 | 56.83167 | 23.99736 | 3080 ft | 260 kts | 147° |
| 2026-05-05 04:56 | 56.81889 | 24.02196 | 3778 ft | 276 kts | 123° |
| 2026-05-05 04:56 | 56.81243 | 24.05484 | 4598 ft | 286 kts | 96° |
| 2026-05-05 04:56 | 56.81436 | 24.09094 | 5423 ft | 290 kts | 74° |
| 2026-05-05 04:56 | 56.82033 | 24.12626 | 6294 ft | 293 kts | 71° |
| 2026-05-05 04:57 | 56.82714 | 24.16168 | 7083 ft | 298 kts | 65° |
| 2026-05-05 04:57 | 56.83879 | 24.19301 | 7848 ft | 300 kts | 45° |
| 2026-05-05 04:57 | 56.85312 | 24.22108 | 8667 ft | 304 kts | 43° |
| 2026-05-05 04:57 | 56.86942 | 24.24568 | 9434 ft | 305 kts | 24° |
| 2026-05-05 04:58 | 56.88928 | 24.25788 | 10169 ft | 301 kts | 1° |
| 2026-05-05 04:58 | 56.91062 | 24.25856 | 10525 ft | 318 kts | 354° |
| 2026-05-05 04:58 | 56.93329 | 24.26027 | 10732 ft | 343 kts | 359° |
| 2026-05-05 04:58 | 56.95790 | 24.26457 | 10949 ft | 366 kts | 1° |
| 2026-05-05 04:59 | 56.98357 | 24.27021 | 11493 ft | 375 kts | 2° |
| 2026-05-05 04:59 | 57.00964 | 24.27611 | 12203 ft | 380 kts | 1° |
| 2026-05-05 04:59 | 57.03607 | 24.28171 | 12939 ft | 384 kts | 0° |
| 2026-05-05 04:59 | 57.06272 | 24.28683 | 13689 ft | 387 kts | 0° |
| 2026-05-05 05:00 | 57.08967 | 24.29160 | 14324 ft | 391 kts | 359° |
| 2026-05-05 05:00 | 57.11654 | 24.29604 | 14973 ft | 395 kts | 359° |
| 2026-05-05 05:00 | 57.14405 | 24.30000 | 15645 ft | 398 kts | 357° |
| 2026-05-05 05:00 | 57.17180 | 24.30172 | 16305 ft | 400 kts | 355° |
| 2026-05-05 05:01 | 57.19971 | 24.30168 | 16962 ft | 403 kts | 353° |
| 2026-05-05 05:01 | 57.22785 | 24.30077 | 17617 ft | 406 kts | 353° |
| 2026-05-05 05:01 | 57.25624 | 24.29973 | 18278 ft | 410 kts | 353° |
| 2026-05-05 05:01 | 57.28491 | 24.29893 | 18843 ft | 414 kts | 353° |
| 2026-05-05 05:02 | 57.31390 | 24.29852 | 19397 ft | 418 kts | 354° |
| 2026-05-05 05:02 | 57.34308 | 24.29848 | 19952 ft | 421 kts | 354° |
| 2026-05-05 05:02 | 57.37211 | 24.29865 | 20483 ft | 425 kts | 354° |
| 2026-05-05 05:02 | 57.40176 | 24.29883 | 21016 ft | 428 kts | 354° |
| 2026-05-05 05:03 | 57.43167 | 24.29894 | 21543 ft | 431 kts | 355° |
| 2026-05-05 05:03 | 57.46174 | 24.29898 | 22057 ft | 434 kts | 355° |
| 2026-05-05 05:03 | 57.49204 | 24.29897 | 22560 ft | 437 kts | 355° |
| 2026-05-05 05:03 | 57.52255 | 24.29896 | 23054 ft | 440 kts | 355° |
| 2026-05-05 05:04 | 57.55335 | 24.29899 | 23533 ft | 444 kts | 355° |
| 2026-05-05 05:04 | 57.58392 | 24.29905 | 23926 ft | 447 kts | 355° |
| 2026-05-05 05:04 | 57.61510 | 24.29917 | 24337 ft | 450 kts | 355° |
| 2026-05-05 05:04 | 57.64647 | 24.29929 | 24749 ft | 452 kts | 355° |
| 2026-05-05 05:05 | 57.67802 | 24.29934 | 25175 ft | 455 kts | 355° |
| 2026-05-05 05:05 | 57.70980 | 24.29936 | 25562 ft | 457 kts | 355° |
| 2026-05-05 05:05 | 57.74170 | 24.29935 | 25958 ft | 460 kts | 355° |
| 2026-05-05 05:05 | 57.77378 | 24.29932 | 26345 ft | 462 kts | 355° |
| 2026-05-05 05:06 | 57.80604 | 24.29931 | 26729 ft | 465 kts | 355° |
| 2026-05-05 05:06 | 57.83853 | 24.29933 | 27135 ft | 468 kts | 355° |
| 2026-05-05 05:06 | 57.87071 | 24.29936 | 27526 ft | 470 kts | 355° |
| 2026-05-05 05:06 | 57.90357 | 24.30162 | 27902 ft | 477 kts | 1° |
| 2026-05-05 05:07 | 57.93651 | 24.31171 | 28329 ft | 481 kts | 5° |
| 2026-05-05 05:07 | 57.96934 | 24.32313 | 28881 ft | 479 kts | 5° |
| 2026-05-05 05:07 | 58.00210 | 24.33450 | 29418 ft | 478 kts | 5° |
| 2026-05-05 05:07 | 58.03473 | 24.34577 | 29954 ft | 476 kts | 5° |
| 2026-05-05 05:08 | 58.06728 | 24.35699 | 30400 ft | 475 kts | 5° |
| 2026-05-05 05:08 | 58.09979 | 24.36812 | 30833 ft | 474 kts | 5° |
| 2026-05-05 05:08 | 58.13220 | 24.37917 | 31297 ft | 473 kts | 5° |
| 2026-05-05 05:08 | 58.16421 | 24.39014 | 31688 ft | 474 kts | 5° |
| 2026-05-05 05:09 | 58.19661 | 24.40133 | 31800 ft | 472 kts | 5° |
| 2026-05-05 05:09 | 58.26078 | 24.42393 | 31805 ft | 468 kts | 5° |
| 2026-05-05 05:10 | 58.32475 | 24.44628 | 31800 ft | 467 kts | 5° |
| 2026-05-05 05:10 | 58.38866 | 24.46849 | 31816 ft | 467 kts | 5° |
| 2026-05-05 05:11 | 58.45222 | 24.49074 | 31812 ft | 468 kts | 5° |
| 2026-05-05 05:11 | 58.51623 | 24.51335 | 31831 ft | 468 kts | 5° |
| 2026-05-05 05:12 | 58.58035 | 24.53627 | 31811 ft | 469 kts | 5° |
| 2026-05-05 05:12 | 58.64444 | 24.55914 | 31847 ft | 469 kts | 4° |
| 2026-05-05 05:13 | 58.70813 | 24.58186 | 31805 ft | 469 kts | 4° |
| 2026-05-05 05:13 | 58.77226 | 24.60482 | 31777 ft | 469 kts | 4° |
| 2026-05-05 05:14 | 58.83639 | 24.62771 | 31778 ft | 469 kts | 4° |
| 2026-05-05 05:14 | 58.86849 | 24.63921 | 31576 ft | 467 kts | 4° |
| 2026-05-05 05:14 | 58.90036 | 24.65075 | 31314 ft | 465 kts | 4° |
| 2026-05-05 05:14 | 58.93206 | 24.66232 | 31059 ft | 463 kts | 4° |
| 2026-05-05 05:15 | 58.96322 | 24.67367 | 30809 ft | 461 kts | 4° |
| 2026-05-05 05:15 | 58.99467 | 24.68511 | 30520 ft | 458 kts | 3° |
| 2026-05-05 05:15 | 59.02587 | 24.69650 | 29946 ft | 455 kts | 2° |
| 2026-05-05 05:15 | 59.05691 | 24.70784 | 29318 ft | 452 kts | 2° |
| 2026-05-05 05:16 | 59.08768 | 24.71911 | 28755 ft | 448 kts | 2° |
| 2026-05-05 05:16 | 59.11818 | 24.73032 | 28195 ft | 444 kts | 3° |
| 2026-05-05 05:16 | 59.14838 | 24.74137 | 27639 ft | 440 kts | 2° |
| 2026-05-05 05:16 | 59.17831 | 24.75228 | 27090 ft | 436 kts | 2° |
| 2026-05-05 05:17 | 59.20799 | 24.76313 | 26537 ft | 432 kts | 3° |
| 2026-05-05 05:17 | 59.23706 | 24.77378 | 26026 ft | 429 kts | 3° |
| 2026-05-05 05:17 | 59.26636 | 24.78457 | 25475 ft | 427 kts | 3° |
| 2026-05-05 05:17 | 59.29542 | 24.79534 | 24981 ft | 424 kts | 3° |
| 2026-05-05 05:18 | 59.32431 | 24.80608 | 24472 ft | 422 kts | 3° |
| 2026-05-05 05:18 | 59.35304 | 24.81685 | 24011 ft | 419 kts | 3° |
| 2026-05-05 05:18 | 59.38161 | 24.82868 | 23562 ft | 419 kts | 5° |
| 2026-05-05 05:18 | 59.40994 | 24.84113 | 23097 ft | 416 kts | 5° |
| 2026-05-05 05:19 | 59.43811 | 24.85357 | 22705 ft | 414 kts | 5° |
| 2026-05-05 05:19 | 59.46622 | 24.86601 | 22415 ft | 414 kts | 5° |
| 2026-05-05 05:19 | 59.49387 | 24.87831 | 22122 ft | 412 kts | 5° |
| 2026-05-05 05:19 | 59.52183 | 24.89079 | 21828 ft | 411 kts | 5° |
| 2026-05-05 05:20 | 59.54964 | 24.90326 | 21580 ft | 409 kts | 5° |
| 2026-05-05 05:20 | 59.57735 | 24.91597 | 21290 ft | 409 kts | 5° |
| 2026-05-05 05:20 | 59.60497 | 24.92879 | 21005 ft | 407 kts | 5° |
| 2026-05-05 05:20 | 59.63256 | 24.94086 | 20703 ft | 404 kts | 4° |
| 2026-05-05 05:21 | 59.65999 | 24.95144 | 20270 ft | 400 kts | 2° |
| 2026-05-05 05:21 | 59.68734 | 24.96110 | 19783 ft | 397 kts | 1° |
| 2026-05-05 05:21 | 59.71450 | 24.97040 | 19312 ft | 395 kts | 1° |
| 2026-05-05 05:21 | 59.74152 | 24.97972 | 18800 ft | 393 kts | 1° |
| 2026-05-05 05:22 | 59.76803 | 24.98906 | 18303 ft | 392 kts | 1° |
| 2026-05-05 05:22 | 59.79479 | 24.99871 | 17770 ft | 390 kts | 2° |
| 2026-05-05 05:22 | 59.82136 | 25.00845 | 17205 ft | 387 kts | 2° |
| 2026-05-05 05:22 | 59.84777 | 25.01821 | 16673 ft | 385 kts | 2° |
| 2026-05-05 05:23 | 59.87405 | 25.02796 | 16106 ft | 384 kts | 2° |
| 2026-05-05 05:23 | 59.90025 | 25.03768 | 15524 ft | 382 kts | 2° |
| 2026-05-05 05:23 | 59.92627 | 25.04734 | 14973 ft | 379 kts | 2° |
| 2026-05-05 05:23 | 59.95214 | 25.05693 | 14428 ft | 377 kts | 2° |
| 2026-05-05 05:24 | 59.97755 | 25.06639 | 13898 ft | 375 kts | 2° |
| 2026-05-05 05:24 | 60.00306 | 25.07593 | 13350 ft | 372 kts | 1° |
| 2026-05-05 05:24 | 60.02838 | 25.08540 | 12751 ft | 369 kts | 2° |
| 2026-05-05 05:24 | 60.05349 | 25.09479 | 12164 ft | 366 kts | 2° |
| 2026-05-05 05:25 | 60.07838 | 25.10410 | 11587 ft | 363 kts | 2° |
| 2026-05-05 05:25 | 60.10308 | 25.11332 | 11023 ft | 360 kts | 2° |
| 2026-05-05 05:25 | 60.12759 | 25.12245 | 10542 ft | 355 kts | 2° |
| 2026-05-05 05:25 | 60.15167 | 25.13147 | 10132 ft | 349 kts | 2° |
| 2026-05-05 05:26 | 60.17538 | 25.14041 | 9712 ft | 344 kts | 2° |
| 2026-05-05 05:26 | 60.19850 | 25.14916 | 9274 ft | 340 kts | 2° |
| 2026-05-05 05:26 | 60.22190 | 25.15801 | 8799 ft | 336 kts | 2° |
| 2026-05-05 05:26 | 60.24445 | 25.16650 | 8357 ft | 333 kts | 2° |
| 2026-05-05 05:27 | 60.26693 | 25.17499 | 7916 ft | 323 kts | 2° |
| 2026-05-05 05:27 | 60.28860 | 25.18336 | 7463 ft | 312 kts | 4° |
| 2026-05-05 05:27 | 60.32724 | 25.22168 | 6550 ft | 313 kts | 38° |